createdAt,value
2018-08-06T00:00:43.705Z,20.30
2018-08-06T00:03:13.819Z,20.30
2018-08-06T00:05:44.099Z,20.20
2018-08-06T00:08:13.782Z,20.20
2018-08-06T00:10:52.979Z,20.30
2018-08-06T00:13:23.131Z,20.30
2018-08-06T00:15:54.815Z,20.40
2018-08-06T00:18:24.820Z,20.50
2018-08-06T00:20:56.845Z,20.50
2018-08-06T00:23:27.709Z,20.40
2018-08-06T00:26:00.526Z,20.30
2018-08-06T00:28:33.219Z,20.00
2018-08-06T00:31:03.079Z,20.00
2018-08-06T00:33:32.793Z,20.10
2018-08-06T00:36:03.063Z,20.30
2018-08-06T00:38:33.185Z,20.40
2018-08-06T00:41:06.440Z,20.50
2018-08-06T00:43:39.738Z,20.50
2018-08-06T00:46:09.327Z,20.50
2018-08-06T00:48:39.973Z,20.30
2018-08-06T00:51:09.569Z,20.20
2018-08-06T00:53:38.868Z,20.30
2018-08-06T00:56:08.378Z,20.20
2018-08-06T00:58:37.612Z,20.20
2018-08-06T01:01:07.137Z,20.20
2018-08-06T01:03:36.157Z,20.20
2018-08-06T01:06:05.323Z,20.00
2018-08-06T01:11:03.696Z,19.70
2018-08-06T01:13:32.464Z,19.70
2018-08-06T01:16:01.472Z,19.70
2018-08-06T01:18:30.282Z,19.80
2018-08-06T01:20:59.252Z,19.70
2018-08-06T01:23:28.604Z,19.60
2018-08-06T01:25:57.894Z,19.40
2018-08-06T01:30:57.986Z,19.40
2018-08-06T01:33:27.186Z,19.20
2018-08-06T01:35:56.331Z,19.40
2018-08-06T01:38:25.607Z,19.50
2018-08-06T01:40:54.493Z,19.40
2018-08-06T01:43:23.418Z,19.40
2018-08-06T01:45:52.925Z,19.10
2018-08-06T01:48:21.796Z,18.90
2018-08-06T01:50:50.766Z,19.00
2018-08-06T01:53:20.091Z,19.20
2018-08-06T01:55:49.327Z,19.30
2018-08-06T01:58:19.020Z,19.20
2018-08-06T02:00:48.702Z,19.30
2018-08-06T02:03:17.721Z,19.40
2018-08-06T02:05:47.178Z,19.40
2018-08-06T02:08:16.143Z,19.50
2018-08-06T02:10:45.022Z,19.50
2018-08-06T02:13:14.300Z,19.50
2018-08-06T02:15:44.310Z,19.20
2018-08-06T02:18:13.138Z,19.20
2018-08-06T02:20:41.951Z,19.10
2018-08-06T02:23:11.265Z,19.10
2018-08-06T02:25:40.270Z,19.20
2018-08-06T02:28:09.686Z,19.20
2018-08-06T02:30:39.496Z,19.30
2018-08-06T02:33:08.713Z,19.00
2018-08-06T02:35:37.592Z,19.00
2018-08-06T02:38:06.538Z,19.00
2018-08-06T02:40:35.535Z,19.00
2018-08-06T02:43:04.546Z,19.10
2018-08-06T02:45:33.696Z,19.20
2018-08-06T02:48:02.449Z,19.30
2018-08-06T02:50:31.241Z,19.30
2018-08-06T02:53:00.237Z,19.30
2018-08-06T02:55:29.296Z,19.20
2018-08-06T02:57:58.309Z,19.20
2018-08-06T03:00:27.575Z,19.10
2018-08-06T03:02:56.633Z,19.00
2018-08-06T03:05:25.654Z,19.10
2018-08-06T03:07:54.723Z,19.10
2018-08-06T03:10:23.794Z,19.10
2018-08-06T03:12:52.701Z,19.10
2018-08-06T03:15:22.763Z,19.10
2018-08-06T03:17:51.773Z,19.00
2018-08-06T03:20:20.628Z,19.10
2018-08-06T03:22:49.721Z,19.00
2018-08-06T03:25:18.520Z,19.00
2018-08-06T03:27:47.378Z,19.00
2018-08-06T03:30:17.397Z,18.90
2018-08-06T03:32:47.686Z,18.80
2018-08-06T03:35:17.344Z,18.90
2018-08-06T03:37:49.165Z,19.10
2018-08-06T03:40:18.190Z,19.10
2018-08-06T03:42:46.849Z,19.10
2018-08-06T03:45:15.829Z,19.20
2018-08-06T03:47:44.919Z,19.20
2018-08-06T03:50:14.602Z,19.20
2018-08-06T03:52:44.255Z,19.20
2018-08-06T03:55:13.301Z,19.10
2018-08-06T03:57:42.385Z,19.10
2018-08-06T04:00:12.449Z,19.10
2018-08-06T04:02:41.706Z,19.20
2018-08-06T04:05:12.290Z,19.20
2018-08-06T04:07:41.241Z,19.20
2018-08-06T04:10:10.689Z,19.10
2018-08-06T04:12:39.384Z,19.20
2018-08-06T04:15:09.072Z,19.30
2018-08-06T04:17:37.810Z,19.40
2018-08-06T04:20:07.168Z,19.40
2018-08-06T04:22:36.284Z,19.40
2018-08-06T04:25:05.300Z,19.30
2018-08-06T04:27:34.608Z,19.30
2018-08-06T04:30:03.891Z,19.10
2018-08-06T04:32:32.868Z,19.00
2018-08-06T04:35:02.082Z,19.30
2018-08-06T04:37:46.619Z,19.50
2018-08-06T04:40:15.806Z,19.50
2018-08-06T04:42:44.626Z,19.50
2018-08-06T04:45:14.146Z,19.60
2018-08-06T04:47:43.420Z,19.70
2018-08-06T04:50:13.796Z,19.60
2018-08-06T04:52:43.120Z,19.70
2018-08-06T04:55:14.281Z,19.80
2018-08-06T04:57:43.109Z,19.90
2018-08-06T05:00:13.579Z,19.90
2018-08-06T05:02:43.100Z,20.00
2018-08-06T05:05:12.076Z,19.90
2018-08-06T05:07:41.268Z,20.00
2018-08-06T05:10:10.164Z,20.10
2018-08-06T05:15:10.800Z,20.30
2018-08-06T05:17:39.916Z,20.10
2018-08-06T05:20:08.801Z,20.20
2018-08-06T05:25:06.563Z,20.50
2018-08-06T05:27:35.595Z,20.50
2018-08-06T05:30:06.836Z,20.60
2018-08-06T05:32:36.194Z,20.70
2018-08-06T05:35:06.346Z,20.90
2018-08-06T05:37:35.340Z,20.90
2018-08-06T05:40:04.842Z,21.10
2018-08-06T05:42:33.626Z,21.40
2018-08-06T05:45:02.613Z,21.80
2018-08-06T05:47:31.750Z,22.00
2018-08-06T05:50:03.207Z,22.10
2018-08-06T05:52:32.266Z,22.30
2018-08-06T05:55:01.224Z,22.30
2018-08-06T05:57:30.167Z,22.20
2018-08-06T05:59:59.561Z,22.20
2018-08-06T06:02:32.382Z,22.30
2018-08-06T06:05:01.429Z,22.40
2018-08-06T06:07:30.627Z,22.70
2018-08-06T06:09:59.454Z,22.80
2018-08-06T06:12:29.441Z,22.90
2018-08-06T06:14:59.257Z,22.80
2018-08-06T06:17:28.587Z,22.80
2018-08-06T06:19:57.367Z,22.90
2018-08-06T06:22:27.557Z,23.10
2018-08-06T06:24:56.910Z,23.10
2018-08-06T06:27:25.896Z,23.20
2018-08-06T06:30:00.582Z,23.30
2018-08-06T06:32:30.056Z,23.60
2018-08-06T06:35:14.524Z,23.80
2018-08-06T06:37:45.106Z,24.10
2018-08-06T06:40:13.973Z,24.70
2018-08-06T06:42:43.356Z,25.40
2018-08-06T06:45:12.828Z,26.40
2018-08-06T06:53:29.307Z,29.70
2018-08-06T06:55:58.385Z,30.00
2018-08-06T07:01:19.451Z,30.50
2018-08-06T07:09:29.530Z,32.30
2018-08-06T07:15:20.705Z,33.00
2018-08-06T07:18:15.619Z,32.70
2018-08-06T07:20:49.976Z,32.20
2018-08-06T07:23:21.087Z,32.60
2018-08-06T07:25:51.510Z,31.90
2018-08-06T07:28:21.124Z,30.20
2018-08-06T07:30:50.286Z,30.20
2018-08-06T07:33:22.524Z,29.80
2018-08-06T07:35:53.285Z,30.20
2018-08-06T07:38:23.774Z,30.00
2018-08-06T07:40:52.902Z,29.00
2018-08-06T07:43:22.343Z,29.10
2018-08-06T07:45:51.756Z,31.30
2018-08-06T07:48:20.945Z,32.80
2018-08-06T07:51:06.071Z,32.50
2018-08-06T07:53:38.462Z,31.50
2018-08-06T07:56:08.966Z,29.60
2018-08-06T07:58:38.864Z,30.30
2018-08-06T08:01:08.054Z,29.60
2018-08-06T08:03:40.596Z,29.80
2018-08-06T08:06:10.357Z,29.30
2018-08-06T08:08:40.940Z,28.30
2018-08-06T08:11:11.537Z,27.70
2018-08-06T08:13:40.869Z,27.40
2018-08-06T08:16:10.075Z,28.30
2018-08-06T08:22:17.228Z,29.50
2018-08-06T08:24:46.738Z,29.20
2018-08-06T08:27:17.211Z,29.30
2018-08-06T08:29:47.364Z,29.30
2018-08-06T08:32:30.691Z,30.70
2018-08-06T08:35:03.965Z,30.50
2018-08-06T08:37:34.431Z,29.80
2018-08-06T08:40:06.900Z,30.80
2018-08-06T08:42:38.068Z,31.30
2018-08-06T08:47:37.719Z,30.90
2018-08-06T08:50:15.419Z,29.90
2018-08-06T08:52:46.122Z,30.70
2018-08-06T08:55:33.871Z,29.60
2018-08-06T09:03:15.447Z,29.70
2018-08-06T09:05:50.636Z,29.90
2018-08-06T09:08:40.690Z,29.60
2018-08-06T09:11:15.896Z,30.30
2018-08-06T09:13:51.478Z,31.40
2018-08-06T09:16:29.137Z,32.00
2018-08-06T09:18:58.161Z,32.90
2018-08-06T09:23:56.645Z,34.80
2018-08-06T09:26:27.752Z,34.50
2018-08-06T09:29:04.823Z,32.70
2018-08-06T09:39:40.753Z,32.70
2018-08-06T09:42:25.921Z,32.60
2018-08-06T09:44:56.002Z,32.20
2018-08-06T09:50:01.368Z,32.30
2018-08-06T09:52:34.458Z,31.60
2018-08-06T09:55:08.382Z,30.50
2018-08-06T09:57:39.880Z,30.90
2018-08-06T10:00:24.573Z,30.30
2018-08-06T10:03:01.132Z,30.50
2018-08-06T10:05:40.513Z,31.10
2018-08-06T10:08:17.579Z,31.80
2018-08-06T10:25:56.756Z,30.90
2018-08-06T10:28:46.601Z,31.30
2018-08-06T10:31:34.379Z,31.60
2018-08-06T10:34:10.267Z,30.80
2018-08-06T10:36:41.032Z,31.10
2018-08-06T10:39:11.677Z,30.90
2018-08-06T10:41:50.485Z,30.90
2018-08-06T10:44:23.388Z,30.30
2018-08-06T10:53:36.154Z,31.10
2018-08-06T10:56:05.603Z,31.40
2018-08-06T11:01:04.573Z,30.30
2018-08-06T11:06:43.407Z,30.40
2018-08-06T11:09:12.416Z,29.70
2018-08-06T11:11:41.213Z,30.40
2018-08-06T11:14:12.969Z,30.70
2018-08-06T11:16:44.329Z,31.00
2018-08-06T11:19:13.296Z,30.90
2018-08-06T11:21:44.830Z,31.00
2018-08-06T11:24:14.584Z,31.60
2018-08-06T11:26:43.541Z,32.30
2018-08-06T11:29:13.548Z,32.10
2018-08-06T11:31:54.663Z,32.00
2018-08-06T11:34:24.755Z,31.00
2018-08-06T11:39:31.540Z,31.30
2018-08-06T11:42:00.345Z,30.60
2018-08-06T11:44:29.950Z,31.00
2018-08-06T11:47:05.126Z,31.40
2018-08-06T11:49:37.992Z,31.80
2018-08-06T12:02:01.412Z,31.20
2018-08-06T12:04:30.057Z,30.60
2018-08-06T12:09:27.575Z,30.30
2018-08-06T12:12:22.639Z,30.20
2018-08-06T12:14:52.219Z,29.80
2018-08-06T12:17:21.566Z,30.20
2018-08-06T12:19:49.822Z,30.20
2018-08-06T12:22:18.112Z,30.50
2018-08-06T12:24:47.279Z,30.70
2018-08-06T12:27:16.905Z,30.80
2018-08-06T12:29:46.220Z,30.30
2018-08-06T12:32:14.993Z,30.60
2018-08-06T12:34:48.622Z,30.50
2018-08-06T12:37:19.305Z,30.50
2018-08-06T12:39:47.746Z,30.30
2018-08-06T12:42:16.824Z,30.40
2018-08-06T12:44:46.116Z,30.60
2018-08-06T12:47:14.720Z,30.80
2018-08-06T12:49:56.712Z,31.20
2018-08-06T12:52:25.445Z,30.60
2018-08-06T12:54:53.753Z,30.80
2018-08-06T12:57:22.032Z,30.80
2018-08-06T12:59:51.367Z,30.70
2018-08-06T13:02:19.933Z,30.70
2018-08-06T13:04:50.824Z,30.80
2018-08-06T13:07:36.956Z,30.90
2018-08-06T13:10:19.360Z,30.90
2018-08-06T13:15:55.465Z,30.70
2018-08-06T13:18:25.583Z,30.60
2018-08-06T13:20:53.917Z,30.90
2018-08-06T13:23:23.639Z,31.10
2018-08-06T13:25:53.291Z,30.90
2018-08-06T13:28:22.372Z,30.50
2018-08-06T13:30:51.411Z,30.30
2018-08-06T13:35:49.456Z,30.30
2018-08-06T13:38:17.834Z,30.20
2018-08-06T13:41:44.784Z,30.50
2018-08-06T13:44:18.290Z,30.50
2018-08-06T13:47:04.337Z,30.50
2018-08-06T13:52:48.056Z,30.10
2018-08-06T13:55:24.825Z,30.30
2018-08-06T13:58:00.575Z,30.00
2018-08-06T14:00:36.373Z,30.40
2018-08-06T14:03:05.260Z,30.30
2018-08-06T14:05:33.647Z,30.30
2018-08-06T14:08:02.964Z,30.10
2018-08-06T14:10:32.589Z,30.30
2018-08-06T14:13:01.043Z,30.20
2018-08-06T14:15:31.577Z,30.10
2018-08-06T14:18:01.973Z,30.00
2018-08-06T14:20:32.897Z,30.30
2018-08-06T14:23:01.851Z,30.40
2018-08-06T14:25:35.825Z,30.60
2018-08-06T14:28:04.308Z,30.60
2018-08-06T14:30:32.767Z,30.50
2018-08-06T14:33:02.608Z,30.60
2018-08-06T14:35:30.936Z,30.70
2018-08-06T14:38:02.762Z,30.90
2018-08-06T14:40:31.841Z,31.00
2018-08-06T14:45:30.197Z,30.30
2018-08-06T14:48:01.710Z,30.20
2018-08-06T14:50:38.049Z,30.40
2018-08-06T14:53:06.522Z,30.50
2018-08-06T14:55:34.933Z,30.20
2018-08-06T15:00:41.176Z,30.30
2018-08-06T15:03:10.413Z,30.40
2018-08-06T15:08:09.820Z,30.50
2018-08-06T15:10:38.926Z,30.70
2018-08-06T15:15:40.780Z,30.60
2018-08-06T15:18:09.255Z,30.50
2018-08-06T15:20:38.020Z,30.60
2018-08-06T15:23:06.589Z,30.70
2018-08-06T15:25:46.013Z,30.80
2018-08-06T15:30:46.105Z,30.50
2018-08-06T15:33:14.948Z,30.50
2018-08-06T15:35:44.306Z,30.10
2018-08-06T15:38:12.978Z,30.10
2018-08-06T15:40:41.325Z,30.10
2018-08-06T15:43:10.281Z,30.30
2018-08-06T15:45:38.630Z,30.30
2018-08-06T15:48:08.111Z,30.30
2018-08-06T15:50:46.937Z,30.20
2018-08-06T15:53:17.776Z,30.20
2018-08-06T15:55:50.824Z,30.30
2018-08-06T16:01:27.697Z,30.20
2018-08-06T16:03:57.092Z,30.30
2018-08-06T16:06:33.909Z,30.30
2018-08-06T16:09:09.790Z,30.40
2018-08-06T16:11:39.285Z,30.30
2018-08-06T16:14:14.469Z,30.30
2018-08-06T16:16:43.004Z,30.20
2018-08-06T16:19:38.401Z,30.20
2018-08-06T16:22:09.692Z,30.10
2018-08-06T16:24:38.206Z,30.00
2018-08-06T16:27:06.470Z,29.90
2018-08-06T16:29:48.292Z,29.90
2018-08-06T16:32:25.657Z,29.90
2018-08-06T16:34:55.971Z,30.00
2018-08-06T16:37:25.207Z,29.90
2018-08-06T16:40:16.337Z,29.80
2018-08-06T16:42:45.590Z,29.80
2018-08-06T16:45:14.497Z,29.80
2018-08-06T16:47:46.119Z,29.80
2018-08-06T16:50:19.988Z,29.80
2018-08-06T16:52:48.828Z,29.60
2018-08-06T16:57:55.206Z,29.40
2018-08-06T17:00:28.066Z,29.30
2018-08-06T17:03:00.133Z,29.30
2018-08-06T17:05:31.720Z,29.30
2018-08-06T17:08:03.718Z,29.20
2018-08-06T17:10:33.360Z,29.20
2018-08-06T17:13:02.731Z,29.20
2018-08-06T17:15:42.027Z,29.30
2018-08-06T17:18:11.679Z,29.30
2018-08-06T17:20:41.145Z,29.20
2018-08-06T17:23:14.583Z,29.10
2018-08-06T17:25:43.441Z,29.10
2018-08-06T17:28:15.339Z,29.10
2018-08-06T17:30:46.019Z,29.00
2018-08-06T17:33:15.350Z,29.00
2018-08-06T17:41:29.380Z,28.90
2018-08-06T17:44:14.831Z,28.80
2018-08-06T17:46:43.830Z,28.80
2018-08-06T17:49:21.260Z,28.70
2018-08-06T17:52:03.926Z,28.60
2018-08-06T17:54:50.564Z,28.50
2018-08-06T17:57:21.989Z,28.50
2018-08-06T17:59:52.085Z,28.40
2018-08-06T18:02:23.363Z,28.40
2018-08-06T18:04:53.846Z,28.20
2018-08-06T18:07:48.419Z,28.00
2018-08-06T18:10:18.914Z,27.80
2018-08-06T18:12:55.317Z,27.90
2018-08-06T18:15:26.836Z,27.70
2018-08-06T18:17:55.556Z,27.60
2018-08-06T18:20:46.236Z,27.40
2018-08-06T18:23:42.020Z,27.40
2018-08-06T18:26:23.788Z,27.30
2018-08-06T18:28:57.956Z,27.20
2018-08-06T18:31:27.863Z,27.10
2018-08-06T18:33:58.736Z,27.00
2018-08-06T18:36:28.041Z,26.60
2018-08-06T18:39:07.834Z,26.60
2018-08-06T18:41:38.277Z,26.60
2018-08-06T18:44:09.535Z,26.80
2018-08-06T18:46:40.736Z,26.90
2018-08-06T18:49:19.149Z,26.80
2018-08-06T18:51:50.926Z,26.70
2018-08-06T18:54:25.305Z,26.50
2018-08-06T18:57:03.602Z,26.10
2018-08-06T18:59:49.245Z,26.10
2018-08-06T19:05:09.053Z,26.30
2018-08-06T19:07:41.897Z,26.40
2018-08-06T19:10:18.631Z,26.40
2018-08-06T19:12:53.267Z,26.20
2018-08-06T19:15:47.621Z,25.70
2018-08-06T19:21:06.652Z,25.80
2018-08-06T19:23:38.344Z,25.80
2018-08-06T19:26:08.797Z,25.70
2018-08-06T19:28:40.844Z,25.70
2018-08-06T19:31:14.830Z,25.70
2018-08-06T19:33:44.512Z,25.60
2018-08-06T19:36:14.246Z,25.70
2018-08-06T19:38:47.333Z,25.80
2018-08-06T19:41:16.802Z,25.80
2018-08-06T19:43:53.428Z,25.70
2018-08-06T19:46:34.844Z,25.40
2018-08-06T19:49:13.959Z,25.20
2018-08-06T19:51:48.980Z,25.20
2018-08-06T19:54:24.067Z,25.30
2018-08-06T19:59:28.802Z,25.50
2018-08-06T20:01:59.419Z,25.50
2018-08-06T20:04:29.890Z,25.50
2018-08-06T20:06:59.746Z,25.40
2018-08-06T20:09:32.433Z,25.30
2018-08-06T20:12:09.283Z,25.20
2018-08-06T20:14:39.703Z,25.20
2018-08-06T20:17:09.577Z,25.30
2018-08-06T20:19:39.255Z,25.30
2018-08-06T20:22:15.168Z,25.30
2018-08-06T20:24:48.827Z,25.20
2018-08-06T20:27:18.278Z,25.10
2018-08-06T20:32:19.330Z,24.90
2018-08-06T20:34:51.343Z,24.70
2018-08-06T20:37:20.823Z,24.60
2018-08-06T20:39:55.104Z,24.70
2018-08-06T20:42:26.146Z,24.70
2018-08-06T20:44:57.345Z,24.60
2018-08-06T20:47:27.324Z,24.50
2018-08-06T20:49:57.794Z,24.60
2018-08-06T20:52:28.036Z,24.50
2018-08-06T20:54:59.485Z,24.60
2018-08-06T20:57:30.134Z,24.80
2018-08-06T20:59:59.872Z,24.70
2018-08-06T21:02:29.536Z,24.80
2018-08-06T21:04:59.732Z,24.80
2018-08-06T21:07:29.329Z,24.50
2018-08-06T21:09:59.651Z,24.50
2018-08-06T21:12:29.938Z,24.60
2018-08-06T21:14:58.835Z,24.50
2018-08-06T21:17:27.204Z,24.30
2018-08-06T21:19:55.851Z,24.40
2018-08-06T21:22:24.535Z,24.40
2018-08-06T21:24:53.729Z,24.40
2018-08-06T21:27:28.654Z,24.40
2018-08-06T21:30:00.448Z,24.20
2018-08-06T21:32:28.933Z,24.00
2018-08-06T21:34:57.438Z,23.90
2018-08-06T21:37:26.225Z,23.50
2018-08-06T21:39:54.774Z,23.40
2018-08-06T21:42:23.064Z,23.40
2018-08-06T21:44:51.716Z,23.70
2018-08-06T21:47:19.973Z,23.60
2018-08-06T21:49:48.228Z,23.70
2018-08-06T21:52:17.191Z,23.80
2018-08-06T21:54:45.451Z,23.70
2018-08-06T21:57:13.764Z,23.40
2018-08-06T21:59:42.653Z,23.40
2018-08-06T22:02:11.150Z,23.20
2018-08-06T22:04:39.395Z,23.40
2018-08-06T22:07:07.945Z,23.40
2018-08-06T22:09:36.212Z,23.40
2018-08-06T22:12:04.473Z,23.40
2018-08-06T22:14:32.796Z,23.10
2018-08-06T22:17:01.433Z,23.10
2018-08-06T22:19:29.761Z,23.10
2018-08-06T22:21:58.564Z,23.00
2018-08-06T22:24:26.856Z,23.10
2018-08-06T22:26:55.938Z,23.30
2018-08-06T22:29:24.477Z,23.00
2018-08-06T22:31:53.100Z,23.10
2018-08-06T22:34:21.396Z,23.10
2018-08-06T22:36:49.997Z,22.90
2018-08-06T22:39:18.273Z,22.90
2018-08-06T22:41:46.533Z,23.00
2018-08-06T22:44:15.064Z,22.90
2018-08-06T22:46:43.332Z,22.70
2018-08-06T22:49:12.452Z,22.70
2018-08-06T22:51:41.032Z,22.70
2018-08-06T22:54:09.965Z,22.60
2018-08-06T22:56:38.455Z,22.50
2018-08-06T22:59:07.047Z,22.60
2018-08-06T23:01:35.304Z,22.80
2018-08-06T23:04:03.619Z,22.90
2018-08-06T23:06:32.233Z,22.90
2018-08-06T23:09:00.498Z,22.80
2018-08-06T23:11:28.792Z,22.70
2018-08-06T23:13:57.741Z,22.60
2018-08-06T23:16:26.067Z,22.70
2018-08-06T23:18:54.767Z,22.80
2018-08-06T23:21:23.309Z,22.80
2018-08-06T23:23:51.686Z,22.70
2018-08-06T23:26:19.953Z,22.50
2018-08-06T23:28:48.370Z,22.40
2018-08-06T23:31:17.009Z,22.10
2018-08-06T23:33:45.450Z,22.20
2018-08-06T23:36:14.124Z,22.10
2018-08-06T23:38:42.794Z,22.00
2018-08-06T23:41:11.154Z,22.00
2018-08-06T23:43:39.784Z,22.20
2018-08-06T23:46:08.491Z,22.30
2018-08-06T23:48:37.424Z,22.30
2018-08-06T23:51:06.408Z,22.20
2018-08-06T23:53:34.832Z,22.20
2018-08-06T23:56:03.380Z,22.20
2018-08-06T23:58:31.795Z,22.10
